Ust' Kalmanka, Russia
Current Conditions -  °F | °C
As of 10:30 AM on Sunday 23 Nov 2014 (Local Time) from UNBB Reporting Station
Blowing Snow Blowing Snow  
Wind Chill:   Ceiling: 4300
Heat Index: 23°   Visibility: 6mi
Dew Point: 16°   Wind: 20mph
Humidity: 74%   Direction: 220°SW
Pressure: 29.83"   Gusts: 31mph
Location:  52.12°N, 83.32°E
Report Text: UNBB 230330Z 22009G14MPS 9999 DRSN BKN043 M05/M09 Q1010 NOSIGRMK QFE735/0981 24800550
Loading
Personal Weather Stations






























Interactive Weather Map New forecast layout! Learn more

10-Day Weather Forecast

Advertisements
Track Severe Weather on mobile